sensor_id;sensor_type;location;lat;lon;timestamp;P1;durP1;ratioP1;P2;durP2;ratioP2
2001;SDS011;1003;48.002;7.788;2023-04-01T00:00:47;1.23;;;0.47;;
2001;SDS011;1003;48.002;7.788;2023-04-01T00:03:14;1.13;;;0.60;;
2001;SDS011;1003;48.002;7.788;2023-04-01T00:05:41;0.73;;;0.40;;
2001;SDS011;1003;48.002;7.788;2023-04-01T00:08:08;0.73;;;0.30;;
2001;SDS011;1003;48.002;7.788;2023-04-01T00:10:35;0.67;;;0.50;;
2001;SDS011;1003;48.002;7.788;2023-04-01T00:13:02;0.20;;;0.20;;
2001;SDS011;1003;48.002;7.788;2023-04-01T00:15:31;0.40;;;0.40;;
2001;SDS011;1003;48.002;7.788;2023-04-01T00:17:58;1.43;;;0.50;;
2001;SDS011;1003;48.002;7.788;2023-04-01T00:20:26;1.87;;;0.53;;
2001;SDS011;1003;48.002;7.788;2023-04-01T00:22:54;3.10;;;0.40;;
2001;SDS011;1003;48.002;7.788;2023-04-01T00:25:21;0.77;;;0.20;;
2001;SDS011;1003;48.002;7.788;2023-04-01T00:27:49;1.50;;;0.37;;
2001;SDS011;1003;48.002;7.788;2023-04-01T00:30:17;0.20;;;0.20;;
2001;SDS011;1003;48.002;7.788;2023-04-01T00:32:45;1.27;;;0.40;;
2001;SDS011;1003;48.002;7.788;2023-04-01T00:35:12;1.63;;;0.43;;
2001;SDS011;1003;48.002;7.788;2023-04-01T00:37:39;0.83;;;0.27;;
2001;SDS011;1003;48.002;7.788;2023-04-01T00:40:07;1.50;;;0.50;;
2001;SDS011;1003;48.002;7.788;2023-04-01T00:42:49;2.83;;;0.50;;
2001;SDS011;1003;48.002;7.788;2023-04-01T00:45:27;1.03;;;0.50;;
2001;SDS011;1003;48.002;7.788;2023-04-01T00:48:04;1.03;;;0.63;;
2001;SDS011;1003;48.002;7.788;2023-04-01T00:50:36;1.10;;;0.50;;
2001;SDS011;1003;48.002;7.788;2023-04-01T00:53:09;2.37;;;0.77;;
2001;SDS011;1003;48.002;7.788;2023-04-01T00:55:39;3.67;;;0.70;;
2001;SDS011;1003;48.002;7.788;2023-04-01T00:58:15;1.80;;;0.83;;
2001;SDS011;1003;48.002;7.788;2023-04-01T01:00:47;4.87;;;1.20;;
2001;SDS011;1003;48.002;7.788;2023-04-01T01:03:18;3.43;;;1.00;;
2001;SDS011;1003;48.002;7.788;2023-04-01T01:05:59;5.23;;;1.10;;
2001;SDS011;1003;48.002;7.788;2023-04-01T01:08:52;2.93;;;0.90;;
2001;SDS011;1003;48.002;7.788;2023-04-01T01:11:52;3.63;;;1.10;;
2001;SDS011;1003;48.002;7.788;2023-04-01T01:14:34;1.97;;;1.20;;
2001;SDS011;1003;48.002;7.788;2023-04-01T01:17:19;5.73;;;1.47;;
2001;SDS011;1003;48.002;7.788;2023-04-01T01:27:17;5.87;;;1.60;;
2001;SDS011;1003;48.002;7.788;2023-04-01T01:30:00;6.37;;;1.53;;
2001;SDS011;1003;48.002;7.788;2023-04-01T01:33:06;4.73;;;1.50;;
2001;SDS011;1003;48.002;7.788;2023-04-01T01:36:11;5.13;;;1.30;;
2001;SDS011;1003;48.002;7.788;2023-04-01T01:38:41;6.27;;;1.40;;
2001;SDS011;1003;48.002;7.788;2023-04-01T01:41:08;7.27;;;1.40;;
2001;SDS011;1003;48.002;7.788;2023-04-01T01:43:38;9.07;;;1.80;;
2001;SDS011;1003;48.002;7.788;2023-04-01T01:46:09;4.53;;;1.37;;
2001;SDS011;1003;48.002;7.788;2023-04-01T01:48:41;6.30;;;1.60;;
2001;SDS011;1003;48.002;7.788;2023-04-01T01:51:12;5.77;;;1.60;;
2001;SDS011;1003;48.002;7.788;2023-04-01T01:53:39;7.37;;;1.57;;
2001;SDS011;1003;48.002;7.788;2023-04-01T01:56:06;8.60;;;1.60;;
2001;SDS011;1003;48.002;7.788;2023-04-01T01:58:41;6.27;;;1.60;;
2001;SDS011;1003;48.002;7.788;2023-04-01T02:01:13;5.20;;;1.53;;
2001;SDS011;1003;48.002;7.788;2023-04-01T02:03:45;4.50;;;1.53;;
2001;SDS011;1003;48.002;7.788;2023-04-01T02:06:16;3.23;;;1.40;;
2001;SDS011;1003;48.002;7.788;2023-04-01T02:08:49;7.63;;;1.63;;
2001;SDS011;1003;48.002;7.788;2023-04-01T02:11:22;5.83;;;1.40;;
2001;SDS011;1003;48.002;7.788;2023-04-01T02:13:57;6.37;;;1.83;;
2001;SDS011;1003;48.002;7.788;2023-04-01T02:16:32;6.10;;;1.63;;
2001;SDS011;1003;48.002;7.788;2023-04-01T02:19:05;5.90;;;1.47;;
2001;SDS011;1003;48.002;7.788;2023-04-01T02:21:36;6.33;;;1.70;;
2001;SDS011;1003;48.002;7.788;2023-04-01T02:24:07;4.97;;;1.40;;
2001;SDS011;1003;48.002;7.788;2023-04-01T02:26:40;4.03;;;1.87;;
2001;SDS011;1003;48.002;7.788;2023-04-01T02:29:08;4.97;;;1.73;;
2001;SDS011;1003;48.002;7.788;2023-04-01T02:31:38;6.90;;;1.30;;
2001;SDS011;1003;48.002;7.788;2023-04-01T02:34:06;5.73;;;1.33;;
2001;SDS011;1003;48.002;7.788;2023-04-01T02:36:36;5.13;;;1.60;;
2001;SDS011;1003;48.002;7.788;2023-04-01T02:39:04;6.60;;;1.60;;
2001;SDS011;1003;48.002;7.788;2023-04-01T02:41:34;5.90;;;1.60;;
2001;SDS011;1003;48.002;7.788;2023-04-01T02:44:06;8.10;;;1.73;;
2001;SDS011;1003;48.002;7.788;2023-04-01T02:46:33;7.97;;;2.07;;
2001;SDS011;1003;48.002;7.788;2023-04-01T02:49:01;6.87;;;1.40;;
2001;SDS011;1003;48.002;7.788;2023-04-01T02:51:28;5.37;;;1.30;;
2001;SDS011;1003;48.002;7.788;2023-04-01T02:53:56;7.07;;;1.43;;
2001;SDS011;1003;48.002;7.788;2023-04-01T02:56:23;5.93;;;1.50;;
2001;SDS011;1003;48.002;7.788;2023-04-01T02:58:51;3.07;;;1.17;;
2001;SDS011;1003;48.002;7.788;2023-04-01T03:01:18;5.80;;;1.30;;
2001;SDS011;1003;48.002;7.788;2023-04-01T03:03:46;5.37;;;1.50;;
2001;SDS011;1003;48.002;7.788;2023-04-01T03:06:14;5.43;;;1.50;;
2001;SDS011;1003;48.002;7.788;2023-04-01T03:08:43;7.90;;;1.60;;
2001;SDS011;1003;48.002;7.788;2023-04-01T03:11:12;9.17;;;1.80;;
2001;SDS011;1003;48.002;7.788;2023-04-01T03:13:39;6.57;;;1.97;;
2001;SDS011;1003;48.002;7.788;2023-04-01T03:16:06;5.57;;;1.63;;
2001;SDS011;1003;48.002;7.788;2023-04-01T03:18:33;6.57;;;1.60;;
2001;SDS011;1003;48.002;7.788;2023-04-01T03:21:12;5.30;;;1.30;;
2001;SDS011;1003;48.002;7.788;2023-04-01T03:23:41;7.07;;;2.20;;
2001;SDS011;1003;48.002;7.788;2023-04-01T03:26:08;8.90;;;1.80;;
2001;SDS011;1003;48.002;7.788;2023-04-01T03:28:36;5.57;;;1.80;;
2001;SDS011;1003;48.002;7.788;2023-04-01T03:31:03;8.67;;;1.87;;
2001;SDS011;1003;48.002;7.788;2023-04-01T03:33:31;4.67;;;1.43;;
2001;SDS011;1003;48.002;7.788;2023-04-01T03:35:58;8.47;;;1.57;;
2001;SDS011;1003;48.002;7.788;2023-04-01T03:38:25;9.20;;;1.63;;
2001;SDS011;1003;48.002;7.788;2023-04-01T03:40:52;5.27;;;1.10;;
2001;SDS011;1003;48.002;7.788;2023-04-01T03:43:19;3.47;;;1.03;;
2001;SDS011;1003;48.002;7.788;2023-04-01T03:45:50;2.80;;;1.00;;
2001;SDS011;1003;48.002;7.788;2023-04-01T03:48:19;4.60;;;0.93;;
2001;SDS011;1003;48.002;7.788;2023-04-01T03:50:47;1.60;;;0.77;;
2001;SDS011;1003;48.002;7.788;2023-04-01T03:53:14;3.97;;;1.20;;
2001;SDS011;1003;48.002;7.788;2023-04-01T03:55:41;3.87;;;0.97;;
2001;SDS011;1003;48.002;7.788;2023-04-01T03:58:08;4.70;;;1.00;;
2001;SDS011;1003;48.002;7.788;2023-04-01T04:00:35;4.53;;;1.20;;
2001;SDS011;1003;48.002;7.788;2023-04-01T04:03:05;4.40;;;1.10;;
2001;SDS011;1003;48.002;7.788;2023-04-01T04:05:32;7.23;;;1.33;;
2001;SDS011;1003;48.002;7.788;2023-04-01T04:07:59;3.57;;;1.17;;
2001;SDS011;1003;48.002;7.788;2023-04-01T04:10:26;4.33;;;1.00;;
2001;SDS011;1003;48.002;7.788;2023-04-01T04:12:54;3.27;;;1.23;;
2001;SDS011;1003;48.002;7.788;2023-04-01T04:15:21;3.50;;;0.87;;
2001;SDS011;1003;48.002;7.788;2023-04-01T04:17:49;2.17;;;0.87;;
2001;SDS011;1003;48.002;7.788;2023-04-01T04:20:17;2.50;;;0.90;;
2001;SDS011;1003;48.002;7.788;2023-04-01T04:22:45;2.77;;;0.83;;
2001;SDS011;1003;48.002;7.788;2023-04-01T04:25:11;3.60;;;1.00;;
2001;SDS011;1003;48.002;7.788;2023-04-01T04:27:39;4.77;;;1.30;;
2001;SDS011;1003;48.002;7.788;2023-04-01T04:30:06;2.90;;;0.87;;
2001;SDS011;1003;48.002;7.788;2023-04-01T04:32:35;3.83;;;1.00;;
2001;SDS011;1003;48.002;7.788;2023-04-01T04:35:02;4.87;;;1.10;;
2001;SDS011;1003;48.002;7.788;2023-04-01T04:37:32;4.23;;;1.00;;
2001;SDS011;1003;48.002;7.788;2023-04-01T04:39:59;3.77;;;1.13;;
2001;SDS011;1003;48.002;7.788;2023-04-01T04:42:26;3.93;;;1.10;;
2001;SDS011;1003;48.002;7.788;2023-04-01T04:44:54;1.90;;;0.77;;
2001;SDS011;1003;48.002;7.788;2023-04-01T04:47:21;3.70;;;1.30;;
2001;SDS011;1003;48.002;7.788;2023-04-01T04:49:48;3.17;;;1.00;;
2001;SDS011;1003;48.002;7.788;2023-04-01T04:52:15;2.93;;;0.90;;
2001;SDS011;1003;48.002;7.788;2023-04-01T04:54:43;3.10;;;1.27;;
2001;SDS011;1003;48.002;7.788;2023-04-01T04:57:10;5.23;;;1.00;;
2001;SDS011;1003;48.002;7.788;2023-04-01T04:59:37;3.67;;;1.17;;
2001;SDS011;1003;48.002;7.788;2023-04-01T05:02:04;6.27;;;1.20;;
2001;SDS011;1003;48.002;7.788;2023-04-01T05:04:33;3.57;;;1.23;;
2001;SDS011;1003;48.002;7.788;2023-04-01T05:07:01;3.07;;;1.07;;
2001;SDS011;1003;48.002;7.788;2023-04-01T05:09:29;4.40;;;1.30;;
2001;SDS011;1003;48.002;7.788;2023-04-01T05:11:58;5.00;;;1.27;;
2001;SDS011;1003;48.002;7.788;2023-04-01T05:14:25;3.87;;;0.90;;
2001;SDS011;1003;48.002;7.788;2023-04-01T05:16:52;2.43;;;0.83;;
2001;SDS011;1003;48.002;7.788;2023-04-01T05:19:20;3.37;;;1.10;;
2001;SDS011;1003;48.002;7.788;2023-04-01T05:21:47;5.97;;;1.07;;
2001;SDS011;1003;48.002;7.788;2023-04-01T05:24:14;2.37;;;0.73;;
2001;SDS011;1003;48.002;7.788;2023-04-01T05:26:41;3.60;;;1.10;;
2001;SDS011;1003;48.002;7.788;2023-04-01T05:29:09;4.20;;;1.20;;
2001;SDS011;1003;48.002;7.788;2023-04-01T05:31:36;3.93;;;0.90;;
2001;SDS011;1003;48.002;7.788;2023-04-01T05:34:03;1.80;;;0.80;;
2001;SDS011;1003;48.002;7.788;2023-04-01T05:36:30;2.40;;;1.00;;
2001;SDS011;1003;48.002;7.788;2023-04-01T05:38:57;2.63;;;1.00;;
2001;SDS011;1003;48.002;7.788;2023-04-01T05:41:24;3.30;;;1.13;;
2001;SDS011;1003;48.002;7.788;2023-04-01T05:43:51;2.77;;;0.90;;
2001;SDS011;1003;48.002;7.788;2023-04-01T05:46:20;2.83;;;1.20;;
2001;SDS011;1003;48.002;7.788;2023-04-01T05:48:47;3.17;;;1.03;;
2001;SDS011;1003;48.002;7.788;2023-04-01T05:51:14;4.93;;;1.23;;
2001;SDS011;1003;48.002;7.788;2023-04-01T05:53:42;3.53;;;0.93;;
2001;SDS011;1003;48.002;7.788;2023-04-01T05:56:09;3.13;;;0.87;;
2001;SDS011;1003;48.002;7.788;2023-04-01T05:58:36;2.53;;;0.87;;
2001;SDS011;1003;48.002;7.788;2023-04-01T06:01:05;5.60;;;2.03;;
2001;SDS011;1003;48.002;7.788;2023-04-01T06:03:36;5.03;;;0.80;;
2001;SDS011;1003;48.002;7.788;2023-04-01T06:06:03;5.20;;;1.27;;
2001;SDS011;1003;48.002;7.788;2023-04-01T06:08:40;3.13;;;1.03;;
2001;SDS011;1003;48.002;7.788;2023-04-01T06:11:12;5.27;;;0.90;;
2001;SDS011;1003;48.002;7.788;2023-04-01T06:13:56;5.47;;;1.10;;
2001;SDS011;1003;48.002;7.788;2023-04-01T06:16:52;4.13;;;1.27;;
2001;SDS011;1003;48.002;7.788;2023-04-01T06:19:38;4.23;;;0.93;;
2001;SDS011;1003;48.002;7.788;2023-04-01T06:22:35;1.37;;;0.73;;
2001;SDS011;1003;48.002;7.788;2023-04-01T06:25:29;2.37;;;0.70;;
2001;SDS011;1003;48.002;7.788;2023-04-01T06:31:22;1.67;;;0.63;;
2001;SDS011;1003;48.002;7.788;2023-04-01T06:34:17;2.80;;;0.63;;
2001;SDS011;1003;48.002;7.788;2023-04-01T06:37:14;3.87;;;0.97;;
2001;SDS011;1003;48.002;7.788;2023-04-01T06:40:19;1.77;;;0.60;;
2001;SDS011;1003;48.002;7.788;2023-04-01T06:43:25;1.73;;;0.50;;
2001;SDS011;1003;48.002;7.788;2023-04-01T06:46:09;2.53;;;0.90;;
2001;SDS011;1003;48.002;7.788;2023-04-01T06:48:50;1.67;;;0.63;;
2001;SDS011;1003;48.002;7.788;2023-04-01T06:51:41;1.37;;;0.60;;
2001;SDS011;1003;48.002;7.788;2023-04-01T06:54:20;1.07;;;0.70;;
2001;SDS011;1003;48.002;7.788;2023-04-01T06:56:56;2.43;;;0.80;;
2001;SDS011;1003;48.002;7.788;2023-04-01T06:59:32;1.33;;;0.50;;
2001;SDS011;1003;48.002;7.788;2023-04-01T07:02:04;1.53;;;0.60;;
2001;SDS011;1003;48.002;7.788;2023-04-01T07:04:47;2.63;;;0.60;;
2001;SDS011;1003;48.002;7.788;2023-04-01T07:07:21;3.77;;;0.80;;
2001;SDS011;1003;48.002;7.788;2023-04-01T07:09:58;0.83;;;0.60;;
2001;SDS011;1003;48.002;7.788;2023-04-01T07:12:34;2.17;;;0.70;;
2001;SDS011;1003;48.002;7.788;2023-04-01T07:15:13;2.33;;;0.70;;
2001;SDS011;1003;48.002;7.788;2023-04-01T07:17:47;2.20;;;0.70;;
2001;SDS011;1003;48.002;7.788;2023-04-01T07:20:22;1.80;;;0.70;;
2001;SDS011;1003;48.002;7.788;2023-04-01T07:22:56;4.87;;;0.90;;
2001;SDS011;1003;48.002;7.788;2023-04-01T07:25:27;2.63;;;0.70;;
2001;SDS011;1003;48.002;7.788;2023-04-01T07:28:00;1.43;;;0.87;;
2001;SDS011;1003;48.002;7.788;2023-04-01T07:30:33;1.87;;;0.70;;
2001;SDS011;1003;48.002;7.788;2023-04-01T07:33:16;3.40;;;0.70;;
2001;SDS011;1003;48.002;7.788;2023-04-01T07:35:52;6.17;;;0.90;;
2001;SDS011;1003;48.002;7.788;2023-04-01T07:38:31;1.60;;;0.70;;
2001;SDS011;1003;48.002;7.788;2023-04-01T07:41:16;1.23;;;0.80;;
2001;SDS011;1003;48.002;7.788;2023-04-01T07:44:01;2.33;;;0.80;;
2001;SDS011;1003;48.002;7.788;2023-04-01T07:46:49;2.30;;;0.80;;
2001;SDS011;1003;48.002;7.788;2023-04-01T07:49:30;3.83;;;0.80;;
2001;SDS011;1003;48.002;7.788;2023-04-01T07:52:14;2.40;;;0.80;;
2001;SDS011;1003;48.002;7.788;2023-04-01T07:54:57;2.63;;;1.03;;
2001;SDS011;1003;48.002;7.788;2023-04-01T07:57:36;5.97;;;1.10;;
2001;SDS011;1003;48.002;7.788;2023-04-01T08:00:11;2.07;;;0.83;;
2001;SDS011;1003;48.002;7.788;2023-04-01T08:02:51;2.50;;;0.90;;
2001;SDS011;1003;48.002;7.788;2023-04-01T08:05:46;2.57;;;0.80;;
2001;SDS011;1003;48.002;7.788;2023-04-01T08:08:24;2.73;;;0.67;;
2001;SDS011;1003;48.002;7.788;2023-04-01T08:11:10;3.57;;;0.97;;
2001;SDS011;1003;48.002;7.788;2023-04-01T08:13:51;1.33;;;0.60;;
2001;SDS011;1003;48.002;7.788;2023-04-01T08:16:31;1.20;;;0.73;;
2001;SDS011;1003;48.002;7.788;2023-04-01T08:19:10;0.57;;;0.57;;
2001;SDS011;1003;48.002;7.788;2023-04-01T08:21:56;2.53;;;0.80;;
2001;SDS011;1003;48.002;7.788;2023-04-01T08:24:33;1.17;;;0.67;;
2001;SDS011;1003;48.002;7.788;2023-04-01T08:27:11;1.47;;;0.70;;
2001;SDS011;1003;48.002;7.788;2023-04-01T08:29:49;1.40;;;0.60;;
2001;SDS011;1003;48.002;7.788;2023-04-01T08:32:25;1.10;;;0.67;;
2001;SDS011;1003;48.002;7.788;2023-04-01T08:35:02;1.57;;;0.50;;
2001;SDS011;1003;48.002;7.788;2023-04-01T08:37:40;1.63;;;0.60;;
2001;SDS011;1003;48.002;7.788;2023-04-01T08:40:17;1.50;;;0.50;;
2001;SDS011;1003;48.002;7.788;2023-04-01T08:43:10;3.00;;;0.63;;
2001;SDS011;1003;48.002;7.788;2023-04-01T08:45:56;2.10;;;0.50;;
2001;SDS011;1003;48.002;7.788;2023-04-01T08:49:10;0.93;;;0.50;;
2001;SDS011;1003;48.002;7.788;2023-04-01T08:58:01;2.70;;;1.13;;
2001;SDS011;1003;48.002;7.788;2023-04-01T09:01:01;1.23;;;0.50;;
2001;SDS011;1003;48.002;7.788;2023-04-01T09:03:46;2.43;;;0.80;;
2001;SDS011;1003;48.002;7.788;2023-04-01T09:06:50;1.73;;;0.50;;
2001;SDS011;1003;48.002;7.788;2023-04-01T09:09:51;2.23;;;0.60;;
2001;SDS011;1003;48.002;7.788;2023-04-01T09:12:44;1.43;;;0.67;;
2001;SDS011;1003;48.002;7.788;2023-04-01T09:18:45;0.90;;;0.50;;
2001;SDS011;1003;48.002;7.788;2023-04-01T09:21:43;0.50;;;0.50;;
2001;SDS011;1003;48.002;7.788;2023-04-01T09:24:43;0.40;;;0.40;;
2001;SDS011;1003;48.002;7.788;2023-04-01T09:27:27;2.87;;;0.83;;
2001;SDS011;1003;48.002;7.788;2023-04-01T09:30:07;1.50;;;0.70;;
2001;SDS011;1003;48.002;7.788;2023-04-01T09:33:14;2.67;;;0.57;;
2001;SDS011;1003;48.002;7.788;2023-04-01T09:36:14;2.67;;;0.50;;
2001;SDS011;1003;48.002;7.788;2023-04-01T09:39:10;2.53;;;0.67;;
2001;SDS011;1003;48.002;7.788;2023-04-01T09:45:08;2.50;;;0.70;;
2001;SDS011;1003;48.002;7.788;2023-04-01T09:47:57;3.13;;;0.70;;
2001;SDS011;1003;48.002;7.788;2023-04-01T09:50:48;2.60;;;0.67;;
2001;SDS011;1003;48.002;7.788;2023-04-01T09:53:31;3.13;;;0.83;;
2001;SDS011;1003;48.002;7.788;2023-04-01T09:56:19;0.93;;;0.70;;
2001;SDS011;1003;48.002;7.788;2023-04-01T09:59:27;1.57;;;0.57;;
2001;SDS011;1003;48.002;7.788;2023-04-01T10:02:41;2.73;;;0.90;;
2001;SDS011;1003;48.002;7.788;2023-04-01T10:15:45;2.47;;;0.63;;
2001;SDS011;1003;48.002;7.788;2023-04-01T10:22:06;0.90;;;0.43;;
2001;SDS011;1003;48.002;7.788;2023-04-01T10:25:05;0.53;;;0.47;;
2001;SDS011;1003;48.002;7.788;2023-04-01T10:27:59;1.07;;;0.60;;
2001;SDS011;1003;48.002;7.788;2023-04-01T10:31:13;0.87;;;0.60;;
2001;SDS011;1003;48.002;7.788;2023-04-01T10:34:26;2.37;;;0.80;;
2001;SDS011;1003;48.002;7.788;2023-04-01T10:37:27;1.23;;;0.77;;
2001;SDS011;1003;48.002;7.788;2023-04-01T10:40:37;1.27;;;0.50;;
2001;SDS011;1003;48.002;7.788;2023-04-01T10:44:07;1.10;;;0.60;;
2001;SDS011;1003;48.002;7.788;2023-04-01T10:47:13;0.63;;;0.40;;
2001;SDS011;1003;48.002;7.788;2023-04-01T10:50:24;1.40;;;0.60;;
2001;SDS011;1003;48.002;7.788;2023-04-01T10:53:28;1.57;;;0.40;;
2001;SDS011;1003;48.002;7.788;2023-04-01T10:56:18;1.37;;;0.60;;
2001;SDS011;1003;48.002;7.788;2023-04-01T10:59:22;2.70;;;0.73;;
2001;SDS011;1003;48.002;7.788;2023-04-01T11:06:45;0.53;;;0.43;;
2001;SDS011;1003;48.002;7.788;2023-04-01T11:17:26;1.33;;;0.50;;
2001;SDS011;1003;48.002;7.788;2023-04-01T11:20:42;1.70;;;0.80;;
2001;SDS011;1003;48.002;7.788;2023-04-01T11:27:12;1.17;;;0.50;;
2001;SDS011;1003;48.002;7.788;2023-04-01T11:30:17;1.37;;;0.63;;
2001;SDS011;1003;48.002;7.788;2023-04-01T11:33:00;0.87;;;0.63;;
2001;SDS011;1003;48.002;7.788;2023-04-01T11:35:47;1.03;;;0.50;;
2001;SDS011;1003;48.002;7.788;2023-04-01T11:38:35;1.03;;;0.60;;
2001;SDS011;1003;48.002;7.788;2023-04-01T11:41:25;1.70;;;0.60;;
2001;SDS011;1003;48.002;7.788;2023-04-01T11:44:09;0.70;;;0.50;;
2001;SDS011;1003;48.002;7.788;2023-04-01T11:46:50;1.33;;;0.83;;
2001;SDS011;1003;48.002;7.788;2023-04-01T11:49:36;2.53;;;0.70;;
2001;SDS011;1003;48.002;7.788;2023-04-01T11:52:21;4.60;;;0.70;;
2001;SDS011;1003;48.002;7.788;2023-04-01T11:55:24;3.27;;;0.83;;
2001;SDS011;1003;48.002;7.788;2023-04-01T11:58:28;2.17;;;0.70;;
2001;SDS011;1003;48.002;7.788;2023-04-01T12:01:19;2.77;;;0.70;;
2001;SDS011;1003;48.002;7.788;2023-04-01T12:04:06;2.40;;;0.80;;
2001;SDS011;1003;48.002;7.788;2023-04-01T12:07:15;1.40;;;0.80;;
2001;SDS011;1003;48.002;7.788;2023-04-01T12:09:56;1.80;;;0.70;;
2001;SDS011;1003;48.002;7.788;2023-04-01T12:12:40;1.43;;;0.80;;
2001;SDS011;1003;48.002;7.788;2023-04-01T12:15:23;1.03;;;0.70;;
2001;SDS011;1003;48.002;7.788;2023-04-01T12:18:05;2.07;;;0.80;;
2001;SDS011;1003;48.002;7.788;2023-04-01T12:20:49;0.90;;;0.60;;
2001;SDS011;1003;48.002;7.788;2023-04-01T12:23:35;0.87;;;0.50;;
2001;SDS011;1003;48.002;7.788;2023-04-01T12:26:28;0.40;;;0.40;;
2001;SDS011;1003;48.002;7.788;2023-04-01T12:29:37;0.97;;;0.60;;
2001;SDS011;1003;48.002;7.788;2023-04-01T12:32:31;1.63;;;0.87;;
2001;SDS011;1003;48.002;7.788;2023-04-01T12:35:14;1.37;;;0.50;;
2001;SDS011;1003;48.002;7.788;2023-04-01T12:37:54;0.40;;;0.40;;
2001;SDS011;1003;48.002;7.788;2023-04-01T12:40:51;0.83;;;0.50;;
2001;SDS011;1003;48.002;7.788;2023-04-01T12:46:52;0.50;;;0.50;;
2001;SDS011;1003;48.002;7.788;2023-04-01T12:49:57;1.07;;;0.50;;
2001;SDS011;1003;48.002;7.788;2023-04-01T12:53:02;1.83;;;0.70;;
2001;SDS011;1003;48.002;7.788;2023-04-01T12:55:50;1.37;;;0.70;;
2001;SDS011;1003;48.002;7.788;2023-04-01T12:58:32;0.70;;;0.50;;
2001;SDS011;1003;48.002;7.788;2023-04-01T13:01:40;0.70;;;0.60;;
2001;SDS011;1003;48.002;7.788;2023-04-01T13:07:45;1.93;;;0.80;;
2001;SDS011;1003;48.002;7.788;2023-04-01T13:10:29;1.20;;;0.50;;
2001;SDS011;1003;48.002;7.788;2023-04-01T13:13:18;2.00;;;0.67;;
2001;SDS011;1003;48.002;7.788;2023-04-01T13:16:14;0.67;;;0.50;;
2001;SDS011;1003;48.002;7.788;2023-04-01T13:18:52;0.50;;;0.50;;
2001;SDS011;1003;48.002;7.788;2023-04-01T13:21:31;2.00;;;0.77;;
2001;SDS011;1003;48.002;7.788;2023-04-01T13:24:22;1.63;;;0.50;;
2001;SDS011;1003;48.002;7.788;2023-04-01T13:27:06;2.27;;;0.80;;
2001;SDS011;1003;48.002;7.788;2023-04-01T13:29:45;0.93;;;0.53;;
2001;SDS011;1003;48.002;7.788;2023-04-01T13:32:29;1.47;;;0.70;;
2001;SDS011;1003;48.002;7.788;2023-04-01T13:35:23;5.10;;;1.07;;
2001;SDS011;1003;48.002;7.788;2023-04-01T13:38:20;1.80;;;0.80;;
2001;SDS011;1003;48.002;7.788;2023-04-01T13:41:18;1.90;;;0.80;;
2001;SDS011;1003;48.002;7.788;2023-04-01T13:43:59;1.67;;;0.50;;
2001;SDS011;1003;48.002;7.788;2023-04-01T13:46:47;2.23;;;0.50;;
2001;SDS011;1003;48.002;7.788;2023-04-01T13:56:18;1.20;;;0.70;;
2001;SDS011;1003;48.002;7.788;2023-04-01T14:02:40;0.67;;;0.60;;
2001;SDS011;1003;48.002;7.788;2023-04-01T14:05:32;1.70;;;0.60;;
2001;SDS011;1003;48.002;7.788;2023-04-01T14:08:19;1.40;;;0.70;;
2001;SDS011;1003;48.002;7.788;2023-04-01T14:11:06;2.70;;;0.60;;
2001;SDS011;1003;48.002;7.788;2023-04-01T14:13:52;1.97;;;0.73;;
2001;SDS011;1003;48.002;7.788;2023-04-01T14:19:45;1.40;;;0.60;;
2001;SDS011;1003;48.002;7.788;2023-04-01T14:22:53;0.80;;;0.60;;
2001;SDS011;1003;48.002;7.788;2023-04-01T14:25:50;0.70;;;0.50;;
2001;SDS011;1003;48.002;7.788;2023-04-01T14:28:42;0.20;;;0.20;;
2001;SDS011;1003;48.002;7.788;2023-04-01T14:31:36;0.30;;;0.30;;
2001;SDS011;1003;48.002;7.788;2023-04-01T14:34:25;1.73;;;0.40;;
2001;SDS011;1003;48.002;7.788;2023-04-01T14:37:13;0.47;;;0.30;;
2001;SDS011;1003;48.002;7.788;2023-04-01T14:43:01;1.10;;;1.00;;
2001;SDS011;1003;48.002;7.788;2023-04-01T14:45:52;1.13;;;0.63;;
2001;SDS011;1003;48.002;7.788;2023-04-01T14:48:49;1.33;;;0.40;;
2001;SDS011;1003;48.002;7.788;2023-04-01T14:51:22;2.03;;;0.50;;
2001;SDS011;1003;48.002;7.788;2023-04-01T14:54:00;2.40;;;0.73;;
2001;SDS011;1003;48.002;7.788;2023-04-01T14:56:35;0.67;;;0.40;;
2001;SDS011;1003;48.002;7.788;2023-04-01T14:59:07;1.73;;;0.70;;
2001;SDS011;1003;48.002;7.788;2023-04-01T15:01:43;1.77;;;0.93;;
2001;SDS011;1003;48.002;7.788;2023-04-01T15:04:25;1.27;;;1.17;;
2001;SDS011;1003;48.002;7.788;2023-04-01T15:10:24;1.23;;;0.60;;
2001;SDS011;1003;48.002;7.788;2023-04-01T15:13:28;0.83;;;0.50;;
2001;SDS011;1003;48.002;7.788;2023-04-01T15:16:34;1.07;;;0.40;;
2001;SDS011;1003;48.002;7.788;2023-04-01T15:19:18;1.30;;;0.50;;
2001;SDS011;1003;48.002;7.788;2023-04-01T15:22:15;0.40;;;0.40;;
2001;SDS011;1003;48.002;7.788;2023-04-01T15:25:05;0.40;;;0.40;;
2001;SDS011;1003;48.002;7.788;2023-04-01T15:27:57;0.50;;;0.40;;
2001;SDS011;1003;48.002;7.788;2023-04-01T15:30:37;1.97;;;0.50;;
2001;SDS011;1003;48.002;7.788;2023-04-01T15:33:28;0.50;;;0.40;;
2001;SDS011;1003;48.002;7.788;2023-04-01T15:36:38;0.40;;;0.40;;
2001;SDS011;1003;48.002;7.788;2023-04-01T15:39:13;0.53;;;0.50;;
2001;SDS011;1003;48.002;7.788;2023-04-01T15:41:54;1.07;;;0.50;;
2001;SDS011;1003;48.002;7.788;2023-04-01T15:44:57;1.03;;;0.30;;
2001;SDS011;1003;48.002;7.788;2023-04-01T15:47:44;0.67;;;0.50;;
2001;SDS011;1003;48.002;7.788;2023-04-01T15:53:44;1.37;;;0.60;;
2001;SDS011;1003;48.002;7.788;2023-04-01T15:56:36;0.40;;;0.30;;
2001;SDS011;1003;48.002;7.788;2023-04-01T15:59:25;1.13;;;0.50;;
2001;SDS011;1003;48.002;7.788;2023-04-01T16:02:21;0.73;;;0.40;;
2001;SDS011;1003;48.002;7.788;2023-04-01T16:04:59;0.70;;;0.50;;
2001;SDS011;1003;48.002;7.788;2023-04-01T16:07:41;0.83;;;0.43;;
2001;SDS011;1003;48.002;7.788;2023-04-01T16:10:23;0.60;;;0.50;;
2001;SDS011;1003;48.002;7.788;2023-04-01T16:13:17;0.90;;;0.40;;
2001;SDS011;1003;48.002;7.788;2023-04-01T16:16:10;1.17;;;0.90;;
2001;SDS011;1003;48.002;7.788;2023-04-01T16:22:00;1.20;;;0.50;;
2001;SDS011;1003;48.002;7.788;2023-04-01T16:24:40;1.70;;;0.73;;
2001;SDS011;1003;48.002;7.788;2023-04-01T16:27:14;0.50;;;0.47;;
2001;SDS011;1003;48.002;7.788;2023-04-01T16:29:53;0.70;;;0.50;;
2001;SDS011;1003;48.002;7.788;2023-04-01T16:32:31;1.20;;;0.90;;
2001;SDS011;1003;48.002;7.788;2023-04-01T16:35:18;1.30;;;0.60;;
2001;SDS011;1003;48.002;7.788;2023-04-01T16:37:59;1.30;;;0.60;;
2001;SDS011;1003;48.002;7.788;2023-04-01T16:40:40;1.27;;;0.90;;
2001;SDS011;1003;48.002;7.788;2023-04-01T16:43:19;0.77;;;0.70;;
2001;SDS011;1003;48.002;7.788;2023-04-01T16:45:57;0.70;;;0.67;;
2001;SDS011;1003;48.002;7.788;2023-04-01T16:48:59;1.53;;;0.60;;
2001;SDS011;1003;48.002;7.788;2023-04-01T16:51:52;0.93;;;0.73;;
2001;SDS011;1003;48.002;7.788;2023-04-01T16:54:31;1.60;;;0.80;;
2001;SDS011;1003;48.002;7.788;2023-04-01T16:57:14;0.60;;;0.60;;
2001;SDS011;1003;48.002;7.788;2023-04-01T16:59:53;1.33;;;0.70;;
2001;SDS011;1003;48.002;7.788;2023-04-01T17:02:28;1.57;;;0.80;;
2001;SDS011;1003;48.002;7.788;2023-04-01T17:05:03;1.27;;;0.87;;
2001;SDS011;1003;48.002;7.788;2023-04-01T17:07:40;1.00;;;0.70;;
2001;SDS011;1003;48.002;7.788;2023-04-01T17:10:21;1.00;;;0.80;;
2001;SDS011;1003;48.002;7.788;2023-04-01T17:16:10;2.00;;;0.97;;
2001;SDS011;1003;48.002;7.788;2023-04-01T17:19:04;1.70;;;0.87;;
2001;SDS011;1003;48.002;7.788;2023-04-01T17:21:47;2.23;;;1.10;;
2001;SDS011;1003;48.002;7.788;2023-04-01T17:24:32;1.73;;;1.00;;
2001;SDS011;1003;48.002;7.788;2023-04-01T17:27:21;2.03;;;0.77;;
2001;SDS011;1003;48.002;7.788;2023-04-01T17:30:11;2.20;;;1.00;;
2001;SDS011;1003;48.002;7.788;2023-04-01T17:35:57;1.20;;;1.10;;
2001;SDS011;1003;48.002;7.788;2023-04-01T17:41:36;1.87;;;0.70;;
2001;SDS011;1003;48.002;7.788;2023-04-01T17:44:16;1.20;;;1.10;;
2001;SDS011;1003;48.002;7.788;2023-04-01T17:47:13;2.07;;;1.13;;
2001;SDS011;1003;48.002;7.788;2023-04-01T17:50:07;1.60;;;0.90;;
2001;SDS011;1003;48.002;7.788;2023-04-01T17:53:03;0.53;;;0.50;;
2001;SDS011;1003;48.002;7.788;2023-04-01T17:55:51;0.97;;;0.80;;
2001;SDS011;1003;48.002;7.788;2023-04-01T17:58:34;1.47;;;0.97;;
2001;SDS011;1003;48.002;7.788;2023-04-01T18:01:15;1.10;;;0.63;;
2001;SDS011;1003;48.002;7.788;2023-04-01T18:03:56;1.17;;;0.60;;
2001;SDS011;1003;48.002;7.788;2023-04-01T18:06:45;2.30;;;0.90;;
2001;SDS011;1003;48.002;7.788;2023-04-01T18:09:32;0.87;;;0.80;;
2001;SDS011;1003;48.002;7.788;2023-04-01T18:12:16;2.97;;;0.70;;
2001;SDS011;1003;48.002;7.788;2023-04-01T18:15:00;1.30;;;0.80;;